Time;durP1;ratioP1;P1;durP2;ratioP2;P2;SDS_P1;SDS_P2;PMS_P1;PMS_P2;Temp;Humidity;BMP_temperature;BMP_pressure;BME280_temperature;BME280_humidity;BME280_pressure;Samples;Min_cycle;Max_cycle;Signal;HPM_P1;HPM_P2
2021/04/14 00:00:46;;;;;;;13.23;6.67;;;5.40;99.90;;;;;;5066623;28;20211;-77
2021/04/14 00:03:21;;;;;;;11.73;6.47;;;5.50;99.90;;;;;;5066421;28;20188;-76
2021/04/14 00:05:48;;;;;;;11.97;6.30;;;5.40;99.90;;;;;;5062909;28;20237;-77
2021/04/14 00:08:17;;;;;;;10.83;6.03;;;5.10;99.90;;;;;;5065295;28;20243;-77
2021/04/14 00:10:44;;;;;;;10.97;6.03;;;4.90;99.90;;;;;;5067621;28;20608;-76
2021/04/14 00:13:14;;;;;;;12.37;6.43;;;4.90;99.90;;;;;;5067431;28;20203;-77
2021/04/14 00:15:45;;;;;;;16.43;6.63;;;5.00;99.90;;;;;;5067659;28;20202;-76
2021/04/14 00:18:11;;;;;;;10.67;6.47;;;5.00;99.90;;;;;;5062330;28;20195;-77
2021/04/14 00:20:37;;;;;;;13.13;6.93;;;4.90;99.90;;;;;;5066382;28;20188;-77
2021/04/14 00:23:04;;;;;;;14.10;6.07;;;4.90;99.90;;;;;;5067423;28;20195;-76
2021/04/14 00:25:32;;;;;;;12.67;6.90;;;4.80;99.90;;;;;;5065067;28;20223;-77
2021/04/14 00:27:58;;;;;;;11.60;6.07;;;4.80;99.90;;;;;;5068384;28;20191;-76
2021/04/14 00:30:24;;;;;;;16.17;7.07;;;4.80;99.90;;;;;;5064503;28;20176;-77
2021/04/14 00:32:50;;;;;;;12.60;7.07;;;4.80;99.90;;;;;;5063571;28;20703;-76
2021/04/14 00:35:19;;;;;;;13.43;6.90;;;5.00;99.90;;;;;;5065672;28;20514;-77
2021/04/14 00:37:44;;;;;;;12.17;7.13;;;5.00;99.90;;;;;;5062265;28;20190;-76
2021/04/14 00:40:17;;;;;;;13.47;7.17;;;5.00;99.90;;;;;;5066299;28;20282;-77
2021/04/14 00:42:42;;;;;;;13.73;6.87;;;5.10;99.90;;;;;;5068766;28;20522;-77
2021/04/14 00:45:09;;;;;;;12.47;7.70;;;5.10;99.90;;;;;;5063732;28;20200;-77
2021/04/14 00:47:34;;;;;;;16.00;8.17;;;5.00;99.90;;;;;;5064785;28;20182;-78
2021/04/14 00:50:00;;;;;;;14.00;7.93;;;5.00;99.90;;;;;;5063125;28;20271;-76
2021/04/14 00:52:26;;;;;;;14.30;6.93;;;4.90;99.90;;;;;;5066006;28;20186;-77
2021/04/14 00:54:52;;;;;;;18.57;7.93;;;4.80;99.90;;;;;;5061005;28;20186;-77
2021/04/14 00:57:17;;;;;;;14.80;8.27;;;4.80;99.90;;;;;;5066342;28;20191;-76
2021/04/14 00:59:43;;;;;;;15.03;7.97;;;4.70;99.90;;;;;;5046623;28;20248;-76
2021/04/14 01:02:09;;;;;;;13.33;8.23;;;4.70;99.90;;;;;;5060024;28;20207;-76
2021/04/14 01:04:35;;;;;;;14.00;7.83;;;4.50;99.90;;;;;;5065644;28;20218;-76
2021/04/14 01:07:01;;;;;;;13.10;7.13;;;4.50;99.90;;;;;;5097687;28;20178;-76
2021/04/14 01:09:27;;;;;;;14.93;7.70;;;4.50;99.90;;;;;;5062291;28;20185;-76
2021/04/14 01:11:56;;;;;;;14.23;8.60;;;4.30;99.90;;;;;;5062755;28;20535;-76
2021/04/14 01:14:21;;;;;;;14.50;7.60;;;4.30;99.90;;;;;;5077272;28;20182;-75
2021/04/14 01:16:47;;;;;;;12.97;8.10;;;4.20;99.90;;;;;;5097032;28;20564;-76
2021/04/14 01:19:13;;;;;;;11.30;7.03;;;4.20;99.90;;;;;;5095643;28;20279;-75
2021/04/14 01:21:41;;;;;;;16.80;7.90;;;4.20;99.90;;;;;;5063446;28;20531;-76
2021/04/14 01:24:09;;;;;;;12.27;7.77;;;4.10;99.90;;;;;;5061622;28;20714;-77
2021/04/14 01:26:35;;;;;;;15.07;7.83;;;4.10;99.90;;;;;;5094268;28;20186;-77
2021/04/14 01:29:01;;;;;;;15.63;7.97;;;4.00;99.90;;;;;;5063882;28;20552;-76
2021/04/14 01:31:33;;;;;;;12.87;7.60;;;4.00;99.90;;;;;;5063061;28;20190;-77
2021/04/14 01:34:14;;;;;;;11.93;7.30;;;4.00;99.90;;;;;;5070117;28;20248;-77
2021/04/14 01:36:40;;;;;;;13.43;7.50;;;4.00;99.90;;;;;;5063737;28;20192;-76
2021/04/14 01:39:08;;;;;;;11.60;7.20;;;3.90;99.90;;;;;;5068447;28;20181;-76
2021/04/14 01:41:34;;;;;;;12.33;6.73;;;3.90;99.90;;;;;;5067313;28;20185;-76
2021/04/14 01:44:00;;;;;;;11.93;7.07;;;4.00;99.90;;;;;;5071500;28;20301;-76
2021/04/14 01:46:26;;;;;;;15.40;6.67;;;3.90;99.90;;;;;;5067022;28;20552;-76
2021/04/14 01:48:52;;;;;;;13.03;6.70;;;3.70;99.90;;;;;;5065597;28;20653;-76
2021/04/14 01:51:18;;;;;;;13.10;6.03;;;3.60;99.90;;;;;;5086546;28;20583;-76
2021/04/14 01:53:44;;;;;;;10.73;5.83;;;3.50;99.90;;;;;;5066941;28;20181;-77
2021/04/14 01:56:10;;;;;;;10.60;5.97;;;3.30;99.90;;;;;;5070479;28;20700;-77
2021/04/14 01:58:35;;;;;;;11.77;5.97;;;3.20;99.90;;;;;;5070531;28;20177;-77
2021/04/14 02:01:06;;;;;;;11.37;5.63;;;3.20;99.90;;;;;;5063942;28;20265;-76
2021/04/14 02:03:36;;;;;;;10.37;5.97;;;3.20;99.90;;;;;;5069002;28;20195;-77
2021/04/14 02:06:03;;;;;;;11.67;6.30;;;3.30;99.90;;;;;;5065411;28;20198;-76
2021/04/14 02:08:28;;;;;;;13.37;6.47;;;3.30;99.90;;;;;;5067230;28;20714;-76
2021/04/14 02:10:55;;;;;;;10.40;6.00;;;3.40;99.90;;;;;;5099987;28;20269;-76
2021/04/14 02:13:24;;;;;;;12.93;6.47;;;3.50;99.90;;;;;;5066175;28;20250;-77
2021/04/14 02:15:51;;;;;;;13.43;7.23;;;3.60;99.90;;;;;;5069854;28;20662;-76
2021/04/14 02:18:18;;;;;;;12.17;6.73;;;3.60;99.90;;;;;;5059037;28;20187;-76
2021/04/14 02:20:44;;;;;;;13.90;6.97;;;3.70;99.90;;;;;;5068076;28;20185;-77
2021/04/14 02:23:16;;;;;;;12.27;6.97;;;3.70;99.90;;;;;;5070162;28;20190;-76
2021/04/14 02:25:43;;;;;;;11.33;6.70;;;3.70;99.90;;;;;;5066075;28;20278;-76
2021/04/14 02:28:09;;;;;;;12.60;7.23;;;3.60;99.90;;;;;;5069833;28;20184;-76
2021/04/14 02:30:35;;;;;;;14.27;6.90;;;3.40;99.90;;;;;;5067119;28;20190;-76
2021/04/14 02:33:01;;;;;;;15.27;7.17;;;3.40;99.90;;;;;;5064836;28;20293;-76
2021/04/14 02:35:27;;;;;;;13.10;7.17;;;3.40;99.90;;;;;;5062215;28;20219;-77
2021/04/14 02:37:53;;;;;;;13.93;6.80;;;3.50;99.90;;;;;;5066848;28;20199;-76
2021/04/14 02:40:21;;;;;;;14.73;6.67;;;3.60;99.90;;;;;;5066056;28;20221;-76
2021/04/14 02:42:47;;;;;;;12.50;6.90;;;3.60;99.90;;;;;;5064856;28;20184;-76
2021/04/14 02:45:15;;;;;;;13.40;6.33;;;3.70;99.90;;;;;;5067593;28;20205;-76
2021/04/14 02:47:40;;;;;;;14.77;6.37;;;3.80;99.90;;;;;;5069966;28;20184;-76
2021/04/14 02:50:08;;;;;;;13.37;6.80;;;3.80;99.90;;;;;;5095339;28;20188;-77
2021/04/14 02:52:34;;;;;;;10.47;6.57;;;3.70;99.90;;;;;;5098677;28;20284;-77
2021/04/14 02:54:59;;;;;;;12.53;6.33;;;3.80;99.90;;;;;;5062591;28;20270;-76
2021/04/14 02:57:25;;;;;;;10.57;6.77;;;3.70;99.90;;;;;;5068286;28;20244;-76
2021/04/14 02:59:53;;;;;;;12.67;6.70;;;3.70;99.90;;;;;;5067200;28;20186;-76
2021/04/14 03:02:20;;;;;;;14.30;6.50;;;3.80;99.90;;;;;;5067513;28;20199;-76
2021/04/14 03:04:46;;;;;;;10.27;6.13;;;3.70;99.90;;;;;;5066579;28;20294;-76
2021/04/14 03:07:11;;;;;;;12.50;6.63;;;3.60;99.90;;;;;;5078305;28;20262;-76
2021/04/14 03:09:37;;;;;;;11.50;6.20;;;3.50;99.90;;;;;;5066869;28;20285;-76
2021/04/14 03:12:03;;;;;;;11.50;6.23;;;3.30;99.90;;;;;;5065664;28;20582;-76
2021/04/14 03:14:29;;;;;;;14.37;6.80;;;3.30;99.90;;;;;;5069376;28;20186;-76
2021/04/14 03:16:54;;;;;;;12.10;6.70;;;3.10;99.90;;;;;;5063978;28;20657;-76
2021/04/14 03:19:20;;;;;;;10.53;6.40;;;3.10;99.90;;;;;;5062523;28;20764;-76
2021/04/14 03:21:46;;;;;;;13.60;6.77;;;3.00;99.90;;;;;;5067963;28;20194;-76
2021/04/14 03:24:11;;;;;;;17.00;6.40;;;3.00;99.90;;;;;;5061251;28;20297;-77
2021/04/14 03:26:37;;;;;;;13.50;6.83;;;3.10;99.90;;;;;;5067817;28;20184;-76
2021/04/14 03:29:03;;;;;;;14.10;6.37;;;3.20;99.90;;;;;;5065084;28;20210;-76
2021/04/14 03:31:31;;;;;;;14.67;6.63;;;3.20;99.90;;;;;;5057173;28;20246;-76
2021/04/14 03:33:56;;;;;;;12.97;6.60;;;3.30;99.90;;;;;;5067621;28;20232;-76
2021/04/14 03:36:22;;;;;;;11.87;6.60;;;3.40;99.90;;;;;;5064326;28;20178;-76
2021/04/14 03:38:48;;;;;;;12.20;6.90;;;3.40;99.90;;;;;;5066062;28;20182;-76
2021/04/14 03:41:14;;;;;;;12.33;6.50;;;3.50;99.90;;;;;;5061823;28;20182;-76
2021/04/14 03:43:40;;;;;;;16.60;6.70;;;3.50;99.90;;;;;;5061323;28;20203;-76
2021/04/14 03:46:07;;;;;;;14.07;7.37;;;3.60;99.90;;;;;;5098414;28;20185;-76
2021/04/14 03:48:33;;;;;;;12.53;7.63;;;3.70;99.90;;;;;;5063494;28;20172;-77
2021/04/14 03:50:59;;;;;;;15.30;7.27;;;3.70;99.90;;;;;;5083750;28;20754;-76
2021/04/14 03:53:34;;;;;;;14.17;7.27;;;3.80;99.90;;;;;;5065321;28;20198;-76
2021/04/14 03:56:09;;;;;;;15.43;7.27;;;3.80;99.90;;;;;;5091605;28;20293;-76
2021/04/14 03:58:37;;;;;;;14.27;7.03;;;4.00;99.90;;;;;;5065197;28;20182;-76
2021/04/14 04:01:06;;;;;;;13.87;7.10;;;4.20;99.90;;;;;;5056469;28;20193;-76
2021/04/14 04:03:31;;;;;;;14.10;7.53;;;4.30;99.90;;;;;;5068067;28;20288;-76
2021/04/14 04:05:57;;;;;;;14.63;7.13;;;4.40;99.90;;;;;;5060757;28;20286;-76
2021/04/14 04:08:23;;;;;;;14.47;7.27;;;4.40;99.90;;;;;;5062166;28;20206;-76
2021/04/14 04:10:49;;;;;;;13.60;7.20;;;4.20;99.90;;;;;;5065956;28;20190;-76
2021/04/14 04:13:16;;;;;;;14.67;7.57;;;4.00;99.90;;;;;;5062307;28;20203;-76
2021/04/14 04:15:42;;;;;;;15.00;8.00;;;4.10;99.90;;;;;;5066166;28;20314;-77
2021/04/14 04:18:08;;;;;;;14.40;7.47;;;4.20;99.90;;;;;;5069044;28;20674;-76
2021/04/14 04:20:35;;;;;;;15.13;8.03;;;4.30;99.90;;;;;;5064755;28;20191;-76
2021/04/14 04:23:01;;;;;;;13.00;7.80;;;4.30;99.90;;;;;;5065062;28;20346;-76
2021/04/14 04:25:31;;;;;;;15.33;7.77;;;4.30;99.90;;;;;;5067614;28;20351;-77
2021/04/14 04:27:57;;;;;;;18.93;8.00;;;4.40;99.90;;;;;;5068096;28;20206;-76
2021/04/14 04:30:25;;;;;;;14.30;8.27;;;4.40;99.90;;;;;;5067592;28;20279;-76
2021/04/14 04:32:50;;;;;;;15.50;8.27;;;4.40;99.90;;;;;;5098190;28;20219;-77
2021/04/14 04:35:16;;;;;;;14.70;7.63;;;4.40;99.90;;;;;;5060862;28;20173;-76
2021/04/14 04:37:42;;;;;;;15.80;7.50;;;4.50;99.90;;;;;;5066307;28;20187;-76
2021/04/14 04:40:09;;;;;;;14.60;7.67;;;4.50;99.90;;;;;;5068648;28;20183;-76
2021/04/14 04:42:35;;;;;;;16.90;8.47;;;4.60;99.90;;;;;;5079910;28;20268;-76
2021/04/14 04:45:01;;;;;;;14.03;8.37;;;4.60;99.90;;;;;;5080834;28;20230;-76
2021/04/14 04:47:27;;;;;;;18.13;9.20;;;4.80;99.90;;;;;;5060546;28;20179;-76
2021/04/14 04:49:53;;;;;;;18.20;8.70;;;5.00;99.90;;;;;;5064060;28;20197;-76
2021/04/14 04:52:19;;;;;;;18.70;8.90;;;5.00;99.90;;;;;;5064338;28;20537;-76
2021/04/14 04:54:44;;;;;;;19.07;8.63;;;4.90;99.90;;;;;;5065190;28;20537;-76
2021/04/14 04:57:10;;;;;;;17.13;8.60;;;4.90;99.90;;;;;;5063632;28;20183;-76
2021/04/14 04:59:36;;;;;;;15.17;9.00;;;4.80;99.90;;;;;;5066337;28;20681;-76
2021/04/14 05:02:02;;;;;;;16.53;9.77;;;4.70;99.90;;;;;;5065053;28;20566;-77
2021/04/14 05:04:28;;;;;;;16.77;9.30;;;4.60;99.90;;;;;;5067841;28;20317;-76
2021/04/14 05:06:54;;;;;;;16.50;8.77;;;4.60;99.90;;;;;;5061516;28;20232;-76
2021/04/14 05:09:20;;;;;;;18.83;9.20;;;4.50;99.90;;;;;;5072138;28;20182;-77
2021/04/14 05:11:47;;;;;;;18.37;9.63;;;4.40;99.90;;;;;;5104714;27;20265;-76
2021/04/14 05:14:13;;;;;;;20.13;9.60;;;4.50;99.90;;;;;;5069789;28;20196;-76
2021/04/14 05:16:39;;;;;;;17.90;8.37;;;4.60;99.90;;;;;;5068467;28;20186;-77
2021/04/14 05:19:05;;;;;;;20.27;8.60;;;4.50;99.90;;;;;;5062790;28;20186;-77
2021/04/14 05:21:37;;;;;;;18.60;9.53;;;4.40;99.90;;;;;;5065650;28;20221;-75
2021/04/14 05:24:03;;;;;;;18.43;9.13;;;4.30;99.90;;;;;;5066761;28;20208;-74
2021/04/14 05:26:28;;;;;;;16.77;9.77;;;4.40;99.90;;;;;;5061012;28;20281;-75
2021/04/14 05:28:54;;;;;;;20.37;10.17;;;4.60;99.90;;;;;;5068382;28;20340;-75
2021/04/14 05:31:20;;;;;;;21.27;11.33;;;4.70;99.90;;;;;;5061651;28;20184;-75
2021/04/14 05:33:46;;;;;;;21.57;11.73;;;4.70;99.90;;;;;;5068907;28;20216;-76
2021/04/14 05:36:12;;;;;;;24.57;12.77;;;4.70;99.90;;;;;;5065003;28;20194;-76
2021/04/14 05:38:38;;;;;;;24.47;12.10;;;4.70;99.90;;;;;;5068642;28;20556;-76
2021/04/14 05:41:04;;;;;;;21.73;12.03;;;4.80;99.90;;;;;;5068622;28;20178;-76
2021/04/14 05:43:39;;;;;;;22.63;11.73;;;4.90;99.90;;;;;;5065675;28;21800;-76
2021/04/14 05:46:08;;;;;;;20.20;10.17;;;4.90;99.90;;;;;;5065488;28;20213;-76
2021/04/14 05:48:34;;;;;;;21.73;9.70;;;5.10;99.90;;;;;;5067534;28;20323;-77
2021/04/14 05:51:04;;;;;;;23.97;10.03;;;5.10;99.90;;;;;;5069505;28;20285;-77
2021/04/14 05:53:33;;;;;;;22.03;9.87;;;5.20;99.90;;;;;;5066212;28;20524;-77
2021/04/14 05:56:00;;;;;;;19.23;10.03;;;5.30;99.90;;;;;;5065566;28;20182;-77
2021/04/14 05:58:27;;;;;;;18.97;9.43;;;5.50;99.90;;;;;;5066009;28;20203;-77
2021/04/14 06:00:53;;;;;;;20.00;10.07;;;5.60;99.90;;;;;;5065114;28;20180;-77
2021/04/14 06:03:20;;;;;;;20.43;10.43;;;5.80;99.90;;;;;;5066073;28;20186;-76
2021/04/14 06:05:46;;;;;;;23.57;11.70;;;6.00;99.90;;;;;;5062017;28;20201;-77
2021/04/14 06:08:11;;;;;;;20.77;10.83;;;6.10;99.90;;;;;;5068790;28;20183;-77
2021/04/14 06:10:37;;;;;;;22.07;11.27;;;6.20;99.90;;;;;;5068520;28;20617;-78
2021/04/14 06:13:03;;;;;;;22.83;11.70;;;6.40;99.90;;;;;;5065796;28;20710;-78
2021/04/14 06:15:32;;;;;;;21.17;11.07;;;6.50;99.90;;;;;;5068321;28;20210;-78
2021/04/14 06:17:59;;;;;;;19.80;11.10;;;6.60;99.90;;;;;;5067984;28;20293;-77
2021/04/14 06:20:26;;;;;;;18.90;10.70;;;6.60;99.90;;;;;;5066728;28;20559;-78
2021/04/14 06:22:52;;;;;;;16.40;9.63;;;6.70;99.90;;;;;;5099701;28;20693;-77
2021/04/14 06:25:21;;;;;;;15.37;9.87;;;6.80;99.90;;;;;;5067092;28;20677;-77
2021/04/14 06:28:00;;;;;;;20.47;10.00;;;6.80;99.90;;;;;;5065128;28;20187;-77
2021/04/14 06:30:26;;;;;;;20.20;10.60;;;6.60;99.90;;;;;;5069441;28;20249;-77
2021/04/14 06:32:52;;;;;;;20.83;10.53;;;6.60;99.90;;;;;;5063862;28;20236;-77
2021/04/14 06:35:19;;;;;;;22.17;10.53;;;6.70;99.90;;;;;;5065867;28;20214;-76
2021/04/14 06:37:45;;;;;;;23.70;10.77;;;6.70;99.90;;;;;;5065025;28;20650;-76
2021/04/14 06:44:06;;;;;;;18.93;10.67;;;6.70;99.90;;;;;;5065750;28;20249;-78
2021/04/14 06:46:22;;;;;;;18.00;9.87;;;7.10;99.90;;;;;;5054536;28;20203;-75
2021/04/14 06:49:07;;;;;;;21.80;11.20;;;7.30;99.90;;;;;;5065291;28;20201;-75
2021/04/14 06:51:42;;;;;;;22.67;11.27;;;7.50;99.90;;;;;;5059185;28;20196;-76
2021/04/14 06:54:34;;;;;;;18.10;10.40;;;7.80;99.90;;;;;;5065495;28;20187;-76
2021/04/14 06:57:04;;;;;;;16.77;10.73;;;8.00;99.90;;;;;;5060469;28;20172;-76
2021/04/14 06:59:33;;;;;;;17.70;10.37;;;8.30;99.90;;;;;;5063624;28;20599;-76
2021/04/14 07:02:20;;;;;;;18.60;10.30;;;8.50;99.90;;;;;;5067084;28;20176;-76
2021/04/14 07:04:57;;;;;;;18.47;10.40;;;8.60;99.90;;;;;;5065416;28;20667;-76
2021/04/14 07:07:27;;;;;;;19.23;9.77;;;9.10;99.90;;;;;;5067680;28;20255;-76
2021/04/14 07:09:59;;;;;;;19.77;10.43;;;10.30;99.90;;;;;;5065218;28;20200;-77
2021/04/14 07:12:25;;;;;;;18.07;10.33;;;10.70;99.90;;;;;;5064721;28;20205;-77
2021/04/14 07:14:54;;;;;;;19.30;10.00;;;10.90;99.90;;;;;;5068928;28;20273;-77
2021/04/14 07:17:31;;;;;;;16.43;9.23;;;11.00;99.90;;;;;;5098707;27;20186;-76
2021/04/14 07:20:47;;;;;;;16.93;9.77;;;11.40;99.90;;;;;;5067321;28;20178;-76
2021/04/14 07:23:36;;;;;;;16.10;9.50;;;12.70;99.90;;;;;;5011037;28;20185;-85
2021/04/14 07:26:10;;;;;;;15.90;9.17;;;14.30;99.90;;;;;;5065149;28;20230;-81
2021/04/14 07:29:02;;;;;;;16.60;8.67;;;14.50;99.90;;;;;;5063356;28;20240;-80
2021/04/14 07:31:35;;;;;;;16.23;8.90;;;13.90;98.50;;;;;;5034019;28;20699;-80
2021/04/14 07:34:00;;;;;;;14.83;7.83;;;13.40;98.90;;;;;;5096524;27;20850;-78
2021/04/14 07:36:45;;;;;;;15.23;8.73;;;13.00;99.10;;;;;;5051417;28;20276;-77
2021/04/14 07:39:23;;;;;;;14.87;8.23;;;12.90;99.70;;;;;;5079783;28;20185;-78
2021/04/14 07:42:02;;;;;;;15.23;8.60;;;12.90;99.20;;;;;;5080305;28;20195;-78
2021/04/14 07:45:05;;;;;;;15.03;8.50;;;13.00;99.80;;;;;;5065807;28;20199;-77
2021/04/14 07:47:32;;;;;;;19.83;9.77;;;13.10;99.90;;;;;;5098861;28;20238;-78
2021/04/14 07:49:58;;;;;;;20.97;11.27;;;13.10;99.90;;;;;;5099671;28;20184;-78
2021/04/14 07:52:27;;;;;;;19.70;10.93;;;13.10;99.90;;;;;;5065564;28;20231;-78
2021/04/14 07:54:55;;;;;;;20.80;11.17;;;13.00;99.90;;;;;;5066351;28;20648;-78
2021/04/14 07:57:38;;;;;;;24.07;12.57;;;12.90;99.90;;;;;;5063010;28;20344;-78
2021/04/14 08:00:33;;;;;;;22.13;10.73;;;13.00;99.90;;;;;;5068227;28;20185;-78
2021/04/14 08:03:23;;;;;;;17.63;10.97;;;13.20;99.90;;;;;;5061124;28;20307;-76
2021/04/14 08:05:48;;;;;;;21.40;10.83;;;13.40;99.90;;;;;;5061980;28;20236;-77
2021/04/14 08:08:17;;;;;;;18.03;10.67;;;13.80;99.90;;;;;;5062645;28;20262;-77
2021/04/14 08:10:55;;;;;;;21.33;11.60;;;14.20;99.30;;;;;;5066538;28;20193;-77
2021/04/14 08:13:29;;;;;;;17.30;9.53;;;15.00;98.10;;;;;;5061272;28;20188;-77
2021/04/14 08:15:55;;;;;;;17.37;9.43;;;16.30;96.40;;;;;;5066828;28;20190;-77
2021/04/14 08:18:34;;;;;;;17.03;9.97;;;17.60;91.90;;;;;;5064067;28;20412;-77
2021/04/14 08:21:27;;;;;;;15.40;9.00;;;18.50;87.40;;;;;;5062344;28;20296;-77
2021/04/14 08:24:00;;;;;;;16.53;9.30;;;18.40;85.10;;;;;;5063170;28;20205;-77
2021/04/14 08:26:28;;;;;;;15.47;9.53;;;18.10;85.30;;;;;;5093889;27;20288;-77
2021/04/14 08:28:55;;;;;;;18.20;9.60;;;18.40;83.70;;;;;;5063221;28;20244;-77
2021/04/14 08:31:44;;;;;;;17.77;9.40;;;18.60;79.80;;;;;;5064115;28;20264;-77
2021/04/14 08:34:38;;;;;;;17.07;8.57;;;18.30;78.80;;;;;;5066067;28;20222;-77
2021/04/14 08:37:19;;;;;;;13.20;7.53;;;18.30;80.10;;;;;;5059083;28;20203;-77
2021/04/14 08:39:55;;;;;;;15.27;7.40;;;17.90;77.50;;;;;;5059955;28;20581;-77
2021/04/14 08:42:20;;;;;;;13.73;7.27;;;17.50;77.10;;;;;;5090767;28;20582;-78
2021/04/14 08:44:51;;;;;;;13.53;7.67;;;17.10;78.10;;;;;;5091000;27;20202;-77
2021/04/14 08:47:21;;;;;;;14.07;7.73;;;16.80;78.90;;;;;;5063227;28;20186;-77
2021/04/14 08:49:51;;;;;;;11.97;7.03;;;16.70;78.60;;;;;;5064242;28;20459;-77
2021/04/14 08:52:21;;;;;;;17.00;6.27;;;16.60;78.80;;;;;;5062444;28;20176;-77
2021/04/14 08:54:47;;;;;;;12.63;6.97;;;16.40;75.70;;;;;;5062361;28;20180;-77
2021/04/14 08:57:15;;;;;;;16.63;7.77;;;16.30;78.10;;;;;;5063031;28;20186;-77
2021/04/14 08:59:41;;;;;;;13.40;7.47;;;16.10;80.20;;;;;;5066813;28;20199;-77
2021/04/14 09:02:11;;;;;;;16.07;7.80;;;16.20;79.90;;;;;;5064447;28;20193;-77
2021/04/14 09:04:41;;;;;;;12.27;7.17;;;16.10;80.00;;;;;;5059219;28;20254;-77
2021/04/14 09:07:08;;;;;;;13.30;6.30;;;17.20;77.10;;;;;;5063102;28;20185;-77
2021/04/14 09:09:48;;;;;;;14.23;6.13;;;17.80;72.90;;;;;;5064488;28;21565;-77
2021/04/14 09:12:15;;;;;;;11.23;4.40;;;17.80;71.90;;;;;;5065015;28;20199;-77
2021/04/14 09:14:41;;;;;;;8.97;3.87;;;17.60;67.10;;;;;;5063824;28;20272;-77
2021/04/14 09:17:22;;;;;;;9.03;3.87;;;17.60;67.90;;;;;;5064370;28;22305;-77
2021/04/14 09:19:53;;;;;;;11.97;3.97;;;18.10;64.60;;;;;;5064632;28;20649;-77
2021/04/14 09:22:21;;;;;;;12.20;4.90;;;19.20;62.90;;;;;;5062802;28;20702;-77
2021/04/14 09:24:56;;;;;;;12.87;4.93;;;19.70;61.30;;;;;;5062799;28;20199;-77
2021/04/14 09:27:37;;;;;;;13.73;5.30;;;19.70;60.20;;;;;;5066418;28;20188;-77
2021/04/14 09:30:27;;;;;;;11.47;4.97;;;19.80;57.60;;;;;;5064954;28;20531;-77
2021/04/14 09:33:04;;;;;;;10.77;5.60;;;20.60;56.50;;;;;;5063088;28;20224;-77
2021/04/14 09:35:30;;;;;;;10.50;5.80;;;21.00;58.00;;;;;;5063705;28;20657;-77
2021/04/14 09:38:21;;;;;;;13.27;5.87;;;22.00;53.90;;;;;;5080854;28;20223;-76
2021/04/14 09:40:47;;;;;;;14.70;5.97;;;21.90;53.70;;;;;;5074091;28;20228;-77
2021/04/14 09:43:16;;;;;;;10.03;5.73;;;21.00;55.00;;;;;;5068973;28;20181;-77
2021/04/14 09:45:54;;;;;;;12.10;6.73;;;20.30;56.70;;;;;;5045390;28;20306;-77
2021/04/14 09:48:20;;;;;;;16.10;7.70;;;21.70;52.70;;;;;;5060985;28;20679;-77
2021/04/14 09:50:48;;;;;;;14.27;8.03;;;22.20;50.40;;;;;;5063138;28;20176;-77
2021/04/14 09:53:29;;;;;;;13.83;7.10;;;23.30;50.60;;;;;;5061705;28;20185;-77
2021/04/14 09:56:07;;;;;;;14.20;7.40;;;24.10;48.60;;;;;;5068513;28;20719;-78
2021/04/14 09:58:50;;;;;;;15.87;7.63;;;24.80;46.20;;;;;;5074164;28;20186;-77
2021/04/14 10:01:38;;;;;;;14.63;7.63;;;26.20;44.90;;;;;;5084051;28;21416;-77
2021/04/14 10:04:08;;;;;;;16.23;7.40;;;25.70;43.50;;;;;;5067896;28;20249;-77
2021/04/14 10:06:34;;;;;;;16.63;6.63;;;26.10;42.60;;;;;;5069746;28;20183;-77
2021/04/14 10:09:07;;;;;;;12.67;6.63;;;25.90;40.60;;;;;;5091127;28;20206;-77
2021/04/14 10:11:39;;;;;;;13.50;6.13;;;26.80;39.10;;;;;;5062341;28;20271;-78
2021/04/14 10:14:20;;;;;;;12.17;6.43;;;27.40;39.10;;;;;;5067050;28;20172;-77
2021/04/14 10:16:47;;;;;;;11.57;6.60;;;27.20;37.20;;;;;;5064533;28;20191;-77
2021/04/14 10:19:26;;;;;;;11.77;6.10;;;25.70;37.10;;;;;;5070327;28;20185;-77
2021/04/14 10:21:52;;;;;;;9.57;5.47;;;24.50;38.90;;;;;;5065018;28;20195;-77
2021/04/14 10:24:19;;;;;;;10.07;5.50;;;26.30;35.90;;;;;;5069018;28;20239;-77
2021/04/14 10:26:52;;;;;;;10.93;5.50;;;26.90;35.60;;;;;;5068690;28;20193;-77
2021/04/14 10:29:21;;;;;;;9.57;4.70;;;27.70;36.00;;;;;;5081402;28;20249;-75
2021/04/14 10:31:48;;;;;;;8.40;4.90;;;27.60;35.50;;;;;;5065768;28;20588;-76
2021/04/14 10:34:29;;;;;;;8.10;5.27;;;27.80;34.40;;;;;;5063643;28;20273;-76
2021/04/14 10:36:57;;;;;;;9.02;5.22;;;27.80;34.40;;;;;;5064608;28;20176;-76
2021/04/14 10:39:32;;;;;;;10.50;5.40;;;27.10;33.50;;;;;;5065888;28;20675;-76
2021/04/14 10:42:10;;;;;;;10.90;5.50;;;26.50;34.60;;;;;;5095073;28;20207;-76
2021/04/14 10:44:36;;;;;;;8.33;4.93;;;26.70;34.10;;;;;;5067953;28;20195;-76
2021/04/14 10:47:11;;;;;;;10.07;5.80;;;26.40;33.40;;;;;;5064986;28;20175;-76
2021/04/14 10:49:37;;;;;;;10.63;5.80;;;25.00;34.70;;;;;;5064736;28;20198;-75
2021/04/14 10:52:28;;;;;;;10.67;5.90;;;23.30;36.10;;;;;;5064855;28;20186;-75
2021/04/14 10:54:56;;;;;;;11.07;6.03;;;22.00;39.20;;;;;;5068806;28;20193;-76
2021/04/14 10:57:34;;;;;;;12.97;5.80;;;22.60;39.20;;;;;;5063950;28;21790;-76
2021/04/14 11:00:07;;;;;;;13.07;6.70;;;21.90;40.90;;;;;;5066950;28;20871;-76
2021/04/14 11:02:38;;;;;;;11.43;6.67;;;20.50;41.50;;;;;;5058653;28;20183;-76
2021/04/14 11:05:07;;;;;;;12.97;6.63;;;18.90;44.40;;;;;;5094185;27;20223;-75
2021/04/14 11:07:34;;;;;;;12.83;6.60;;;18.40;45.20;;;;;;5067896;28;20257;-75
2021/04/14 11:10:05;;;;;;;12.30;6.83;;;18.10;46.60;;;;;;5065467;28;20178;-76
2021/04/14 11:12:31;;;;;;;13.87;6.53;;;18.10;49.10;;;;;;5098996;27;20314;-76
2021/04/14 11:15:07;;;;;;;13.27;7.20;;;17.70;46.90;;;;;;5061508;28;20198;-75
2021/04/14 11:17:33;;;;;;;13.40;6.93;;;17.60;45.20;;;;;;5062556;28;20188;-75
2021/04/14 11:20:07;;;;;;;13.53;6.73;;;17.60;45.90;;;;;;5061910;28;20190;-76
2021/04/14 11:22:41;;;;;;;13.23;7.30;;;17.50;47.80;;;;;;5061636;28;20556;-76
2021/04/14 11:25:08;;;;;;;14.87;7.60;;;17.00;46.80;;;;;;5075983;28;20687;-75
2021/04/14 11:27:34;;;;;;;13.30;8.03;;;17.20;47.20;;;;;;5060961;28;20279;-76
2021/04/14 11:30:13;;;;;;;14.57;7.80;;;17.20;48.30;;;;;;5061816;28;20612;-75
2021/04/14 11:32:39;;;;;;;13.80;8.00;;;16.90;48.40;;;;;;5060278;28;20254;-75
2021/04/14 11:35:13;;;;;;;16.23;8.50;;;16.60;47.20;;;;;;5064178;28;20184;-75
2021/04/14 11:37:43;;;;;;;15.17;8.83;;;15.80;49.00;;;;;;5060825;28;20598;-75
2021/04/14 11:40:18;;;;;;;14.60;8.20;;;15.30;50.80;;;;;;5062044;28;20188;-76
2021/04/14 11:42:45;;;;;;;13.07;8.10;;;15.20;50.40;;;;;;5065781;28;20211;-77
2021/04/14 11:45:30;;;;;;;13.57;7.43;;;15.20;51.60;;;;;;5062236;28;20212;-77
2021/04/14 11:48:17;;;;;;;14.43;8.10;;;15.00;53.20;;;;;;5059889;28;20191;-77
2021/04/14 11:50:45;;;;;;;12.23;7.60;;;14.30;53.80;;;;;;5061537;28;20201;-75
2021/04/14 11:53:25;;;;;;;14.73;8.50;;;14.50;54.80;;;;;;5063674;28;20177;-77
2021/04/14 11:55:51;;;;;;;15.47;8.17;;;14.70;52.70;;;;;;5096401;27;20293;-77
2021/04/14 11:58:22;;;;;;;14.67;8.00;;;14.40;51.90;;;;;;5067082;28;20188;-79
2021/04/14 12:00:48;;;;;;;13.20;8.20;;;14.70;51.70;;;;;;5068624;28;20201;-77
2021/04/14 12:03:35;;;;;;;12.77;7.73;;;14.70;52.80;;;;;;5063984;28;20195;-76
2021/04/14 12:06:01;;;;;;;14.43;7.67;;;14.50;51.80;;;;;;5061063;28;20221;-76
2021/04/14 12:08:29;;;;;;;12.57;7.20;;;14.60;53.60;;;;;;5067815;28;20640;-76
2021/04/14 12:10:56;;;;;;;13.90;8.07;;;14.50;52.50;;;;;;5065134;28;20187;-76
2021/04/14 12:13:22;;;;;;;11.47;7.43;;;14.40;51.50;;;;;;5060940;28;20198;-76
2021/04/14 12:15:49;;;;;;;15.47;8.00;;;14.30;51.70;;;;;;5067363;28;20194;-76
2021/04/14 12:18:16;;;;;;;14.77;8.30;;;14.20;51.70;;;;;;5065987;28;20265;-77
2021/04/14 12:20:41;;;;;;;13.50;8.30;;;14.20;51.70;;;;;;5061999;28;20198;-75
2021/04/14 12:23:07;;;;;;;14.43;7.93;;;14.10;51.30;;;;;;5053767;28;20211;-75
2021/04/14 12:25:32;;;;;;;13.07;7.30;;;14.10;52.00;;;;;;5059208;28;20210;-76
2021/04/14 12:27:58;;;;;;;13.63;7.73;;;14.10;53.00;;;;;;5062015;28;20653;-76
2021/04/14 12:30:26;;;;;;;12.43;7.80;;;14.30;52.60;;;;;;5060256;28;20184;-76
2021/04/14 12:32:52;;;;;;;37.57;17.77;;;14.40;51.50;;;;;;5061139;28;20253;-76
2021/04/14 12:35:34;;;;;;;12.93;7.93;;;14.80;51.60;;;;;;5064557;27;20603;-74
2021/04/14 12:38:03;;;;;;;14.10;7.93;;;14.90;51.10;;;;;;5063735;28;20218;-75
2021/04/14 12:40:29;;;;;;;12.57;7.47;;;14.80;53.30;;;;;;5065866;28;20699;-75
2021/04/14 12:42:55;;;;;;;14.23;7.83;;;15.20;54.70;;;;;;5066351;28;20184;-75
2021/04/14 12:45:43;;;;;;;12.70;8.17;;;15.20;53.40;;;;;;5064025;28;20204;-75
2021/04/14 12:48:15;;;;;;;14.97;8.30;;;15.00;51.70;;;;;;5066454;28;20175;-75
2021/04/14 12:50:57;;;;;;;13.13;7.97;;;14.60;52.70;;;;;;5064609;28;20189;-75
2021/04/14 12:53:23;;;;;;;13.73;8.37;;;14.60;52.90;;;;;;5066796;28;20196;-75
2021/04/14 12:55:49;;;;;;;14.87;8.20;;;14.50;53.10;;;;;;5064965;28;20288;-75
2021/04/14 12:58:29;;;;;;;14.83;8.60;;;14.60;52.50;;;;;;5066856;28;20308;-75